Time;durP1;ratioP1;P1;durP2;ratioP2;P2;SDS_P1;SDS_P2;PMS_P1;PMS_P2;Temp;Humidity;BMP_temperature;BMP_pressure;BME280_temperature;BME280_humidity;BME280_pressure;Samples;Min_cycle;Max_cycle;Signal;HPM_P1;HPM_P2
2023/03/30 00:02:22;;;;;;;11.70;5.80;;;;;;;9.76;74.68;102187.66;5096640;28;20094;-89
2023/03/30 00:04:50;;;;;;;9.45;5.63;;;;;;;9.81;74.90;102206.28;5095094;28;20143;-86
2023/03/30 00:07:16;;;;;;;11.00;5.60;;;;;;;10.01;74.98;102246.09;5085595;28;20016;-86
2023/03/30 00:09:42;;;;;;;14.05;6.28;;;;;;;9.94;74.88;102232.53;5112895;28;20238;-88
2023/03/30 00:12:12;;;;;;;9.73;5.63;;;;;;;9.84;74.71;102216.97;5093022;28;20062;-88
2023/03/30 00:14:40;;;;;;;9.73;5.65;;;;;;;9.91;75.10;102221.88;5099510;28;20023;-89
2023/03/30 00:17:06;;;;;;;11.07;5.90;;;;;;;9.62;74.71;102183.00;5094734;28;20084;-89
2023/03/30 00:19:32;;;;;;;;;;;;;;;9.98;74.58;102233.72;5092749;28;20031;-89
2023/03/30 00:21:58;;;;;;;10.38;5.53;;;;;;;9.75;74.85;102203.16;5099708;28;19968;-89
2023/03/30 00:24:23;;;;;;;10.00;5.85;;;;;;;9.79;75.01;102211.34;5104858;28;20023;-89
2023/03/30 00:26:50;;;;;;;9.02;5.57;;;;;;;9.79;74.80;102213.97;5111267;28;20036;-89
2023/03/30 00:29:16;;;;;;;9.35;5.50;;;;;;;9.72;74.68;102197.72;5111562;28;20389;-90
2023/03/30 00:31:42;;;;;;;10.73;5.53;;;;;;;9.83;75.34;102222.06;5092092;28;20037;-88
2023/03/30 00:34:08;;;;;;;8.82;5.65;;;;;;;9.73;74.63;102205.66;5086227;28;20055;-89
2023/03/30 00:36:35;;;;;;;11.13;6.20;;;;;;;9.72;74.49;102195.09;5104361;28;20559;-89
2023/03/30 00:39:05;;;;;;;9.52;5.80;;;;;;;9.87;74.32;102227.63;5112280;28;20027;-89
2023/03/30 00:41:33;;;;;;;8.88;5.60;;;;;;;9.72;74.85;102209.06;5113050;28;20055;-89
2023/03/30 00:44:01;;;;;;;10.70;6.10;;;;;;;9.75;74.58;102204.06;5091554;28;20034;-89
2023/03/30 00:46:30;;;;;;;11.05;5.55;;;;;;;9.83;74.74;102222.06;5110364;28;20460;-90
2023/03/30 00:49:04;;;;;;;11.57;6.03;;;;;;;9.53;74.66;102172.75;5098100;28;20587;-89
2023/03/30 00:51:34;;;;;;;8.32;5.15;;;;;;;9.81;74.53;102215.81;5101055;28;20515;-90
2023/03/30 00:54:14;;;;;;;9.15;5.50;;;;;;;9.77;74.88;102225.97;5091811;28;20028;-89
2023/03/30 00:56:40;;;;;;;9.88;5.47;;;;;;;9.80;74.62;102233.16;5092890;28;20055;-89
2023/03/30 00:59:07;;;;;;;9.98;5.68;;;;;;;9.71;74.57;102209.81;5103062;28;20067;-89
2023/03/30 01:01:37;;;;;;;8.38;5.45;;;;;;;9.63;74.64;102203.13;5110848;28;20398;-89
2023/03/30 01:04:04;;;;;;;11.68;5.80;;;;;;;9.69;74.17;102205.28;5099700;28;20489;-89
2023/03/30 01:06:30;;;;;;;10.27;6.03;;;;;;;9.79;74.14;102223.50;5094709;28;20035;-90
2023/03/30 01:08:58;;;;;;;;;;;;;;;9.79;73.93;102220.88;5088865;28;20486;-89
2023/03/30 01:11:23;;;;;;;;;;;;;;;9.78;74.53;102226.91;5086728;28;19923;-90
2023/03/30 01:13:59;;;;;;;9.65;5.13;;;;;;;9.57;74.29;102195.69;5077420;28;19938;-90
2023/03/30 01:17:05;;;;;;;10.10;5.63;;;;;;;9.76;74.31;102218.03;5089485;28;20028;-90
2023/03/30 01:20:11;;;;;;;9.77;5.13;;;;;;;9.74;73.92;102215.31;5091882;28;20031;-89
2023/03/30 01:23:02;;;;;;;9.25;5.35;;;;;;;9.73;74.24;102215.16;5111524;28;20052;-88
2023/03/30 01:25:55;;;;;;;9.35;5.30;;;;;;;9.71;73.92;102211.53;5107605;28;20031;-89
2023/03/30 01:28:32;;;;;;;9.68;5.38;;;;;;;9.71;73.94;102219.34;5095444;28;20035;-88
2023/03/30 01:31:01;;;;;;;8.25;5.20;;;;;;;9.68;74.44;102217.41;5097298;28;20111;-89
2023/03/30 01:34:04;;;;;;;10.18;5.55;;;;;;;9.33;74.08;102165.94;5099026;28;20031;-88
2023/03/30 01:37:06;;;;;;;10.32;5.40;;;;;;;9.69;73.87;102224.44;5077564;28;20131;-89
2023/03/30 01:40:02;;;;;;;9.23;5.35;;;;;;;9.53;74.02;102197.94;5093368;28;20035;-88
2023/03/30 01:42:59;;;;;;;8.70;5.30;;;;;;;9.67;73.74;102222.50;5098951;28;20031;-89
2023/03/30 01:45:42;;;;;;;9.23;5.45;;;;;;;9.69;73.89;102241.78;5106041;28;20019;-87
2023/03/30 01:48:16;;;;;;;7.90;5.22;;;;;;;9.62;74.01;102235.19;5074227;28;20119;-89
2023/03/30 01:50:52;;;;;;;10.15;5.45;;;;;;;9.61;74.09;102235.03;5075846;28;20023;-89
2023/03/30 01:53:38;;;;;;;8.68;5.28;;;;;;;9.64;74.08;102238.81;5090737;28;20031;-88
2023/03/30 01:56:09;;;;;;;9.23;5.20;;;;;;;9.56;74.22;102232.06;5091142;28;20040;-89
2023/03/30 01:58:41;;;;;;;8.65;4.90;;;;;;;9.58;74.51;102234.00;5105499;28;20384;-90
2023/03/30 02:01:09;;;;;;;8.57;4.95;;;;;;;9.48;74.16;102209.66;5083962;28;20031;-89
2023/03/30 02:03:38;;;;;;;10.27;5.10;;;;;;;9.60;73.88;102236.75;5097455;28;20026;-89
2023/03/30 02:06:19;;;;;;;10.95;5.63;;;;;;;9.41;73.85;102195.22;5111761;28;20045;-88
2023/03/30 02:08:48;;;;;;;8.60;5.30;;;;;;;9.49;73.82;102209.81;5089966;28;20015;-88
2023/03/30 02:11:15;;;;;;;9.30;5.40;;;;;;;9.35;74.01;102185.19;5111014;28;20039;-89
2023/03/30 02:13:42;;;;;;;10.20;5.10;;;;;;;9.44;73.96;102211.13;5105090;28;20024;-90
2023/03/30 02:16:18;;;;;;;8.23;4.97;;;;;;;9.58;74.16;102239.22;5092262;28;20040;-90
2023/03/30 02:18:45;;;;;;;8.93;5.15;;;;;;;9.44;73.82;102207.59;5078217;28;20028;-89
2023/03/30 02:21:11;;;;;;;;;;;;;;;9.61;73.67;102240.25;5094339;28;20028;-89
2023/03/30 02:23:41;;;;;;;8.75;5.45;;;;;;;9.48;74.04;102226.25;5089615;28;19959;-90
2023/03/30 02:26:14;;;;;;;8.80;5.20;;;;;;;9.22;73.84;102189.28;5075394;28;20024;-90
2023/03/30 02:28:40;;;;;;;10.77;5.82;;;;;;;9.46;73.92;102234.69;5068870;28;20028;-90
2023/03/30 02:31:12;;;;;;;10.80;5.68;;;;;;;9.44;73.69;102234.59;5093519;28;20485;-90
2023/03/30 02:34:15;;;;;;;12.25;6.20;;;;;;;9.52;73.56;102248.25;5077601;28;20040;-89
2023/03/30 02:37:02;;;;;;;11.00;5.95;;;;;;;9.48;73.77;102248.78;5077506;28;20048;-91
2023/03/30 02:39:29;;;;;;;11.57;6.05;;;;;;;9.50;73.36;102249.81;5110625;28;20027;-90
2023/03/30 02:42:22;;;;;;;9.93;5.78;;;;;;;9.47;73.80;102249.59;5092066;28;20034;-90
2023/03/30 02:45:15;;;;;;;11.25;5.97;;;;;;;9.47;73.69;102257.41;5101634;28;20043;-89
2023/03/30 02:47:41;;;;;;;11.38;6.05;;;;;;;9.47;73.29;102260.91;5111270;28;20019;-90
2023/03/30 02:50:25;;;;;;;10.65;6.28;;;;;;;9.44;72.96;102254.53;5093991;28;20028;-90
2023/03/30 02:53:15;;;;;;;12.05;6.13;;;;;;;9.44;73.16;102259.75;5083255;28;20519;-91
2023/03/30 02:56:02;;;;;;;11.48;5.85;;;;;;;9.43;72.94;102257.94;5070283;28;20123;-89
2023/03/30 02:58:48;;;;;;;10.23;5.88;;;;;;;9.34;73.40;102240.75;5068000;28;20035;-89
2023/03/30 03:01:23;;;;;;;10.95;5.80;;;;;;;9.24;73.49;102232.94;5070692;28;20489;-88
2023/03/30 03:03:50;;;;;;;13.48;6.60;;;;;;;9.36;73.29;102249.59;5101131;28;20036;-88
2023/03/30 03:06:15;;;;;;;11.15;5.43;;;;;;;9.30;73.62;102241.28;5079092;28;20027;-87
2023/03/30 03:08:43;;;;;;;12.68;5.72;;;;;;;9.34;73.71;102258.09;5071524;28;20474;-88
2023/03/30 03:11:12;;;;;;;9.15;5.45;;;;;;;9.36;73.36;102257.44;5085479;28;20032;-85
2023/03/30 03:13:38;;;;;;;11.85;6.05;;;;;;;9.38;73.28;102266.28;5078789;28;20024;-87
2023/03/30 03:16:05;;;;;;;10.63;6.13;;;;;;;9.36;73.56;102264.34;5086298;28;20043;-89
2023/03/30 03:18:30;;;;;;;12.45;6.30;;;;;;;8.86;73.26;102175.03;5061561;28;20032;-87
2023/03/30 03:20:57;;;;;;;11.70;5.82;;;;;;;9.35;73.38;102263.41;5074589;28;20115;-88
2023/03/30 03:23:23;;;;;;;9.30;5.43;;;;;;;9.11;73.28;102231.00;5080186;28;20035;-89
2023/03/30 03:25:49;;;;;;;10.43;5.63;;;;;;;8.98;73.50;102201.22;5090291;28;20481;-87
2023/03/30 03:28:15;;;;;;;10.18;6.10;;;;;;;9.22;73.51;102246.63;5107931;28;20089;-87
2023/03/30 03:30:41;;;;;;;13.63;5.70;;;;;;;9.26;73.11;102262.66;5113501;28;20058;-87
2023/03/30 03:33:07;;;;;;;10.35;6.10;;;;;;;8.95;73.36;102212.28;5096066;28;20012;-86
2023/03/30 03:35:32;;;;;;;11.35;6.10;;;;;;;8.83;73.37;102200.84;5092501;28;20106;-86
2023/03/30 03:37:59;;;;;;;9.00;6.00;;;;;;;8.90;73.24;102216.19;5097292;28;20063;-87
2023/03/30 03:40:24;;;;;;;10.32;6.22;;;;;;;9.01;73.35;102243.16;5093002;28;20020;-88
2023/03/30 03:42:50;;;;;;;9.43;5.63;;;;;;;8.71;73.35;102199.00;5115351;28;20038;-89
2023/03/30 03:45:15;;;;;;;8.30;5.30;;;;;;;8.91;73.23;102229.38;5090908;28;20404;-88
2023/03/30 03:47:41;;;;;;;9.35;5.55;;;;;;;9.05;73.29;102247.84;5103942;28;20038;-87
2023/03/30 03:50:08;;;;;;;10.68;5.75;;;;;;;8.76;73.15;102210.75;5092810;28;20031;-88
2023/03/30 03:52:35;;;;;;;10.02;5.72;;;;;;;8.93;73.44;102239.88;5114211;28;20082;-88
2023/03/30 03:55:02;;;;;;;11.32;6.03;;;;;;;8.87;73.32;102229.88;5096401;28;20085;-88
2023/03/30 03:57:28;;;;;;;8.65;5.40;;;;;;;8.90;73.04;102239.66;5095471;28;20051;-89
2023/03/30 03:59:55;;;;;;;9.48;5.30;;;;;;;8.89;73.30;102241.34;5102352;28;20027;-88
2023/03/30 04:02:23;;;;;;;9.02;5.35;;;;;;;9.13;73.02;102292.00;5111520;28;20489;-88
2023/03/30 04:04:50;;;;;;;9.73;5.05;;;;;;;8.87;73.32;102249.78;5104169;28;20111;-88
2023/03/30 04:07:16;;;;;;;9.88;6.03;;;;;;;8.72;73.14;102223.34;5077343;28;20031;-87
2023/03/30 04:09:41;;;;;;;9.52;5.60;;;;;;;8.97;73.32;102273.25;5098149;28;20028;-88
2023/03/30 04:12:07;;;;;;;8.32;5.25;;;;;;;8.91;72.94;102252.81;5075568;28;20032;-88
2023/03/30 04:14:34;;;;;;;;;;;;;;;9.12;73.01;102303.22;5101429;28;20036;-88
2023/03/30 04:16:59;;;;;;;11.70;5.35;;;;;;;8.70;73.00;102223.25;5096894;28;20015;-88
2023/03/30 04:19:26;;;;;;;9.35;5.60;;;;;;;9.01;73.01;102290.97;5106362;28;20511;-88
2023/03/30 04:21:54;;;;;;;7.97;4.95;;;;;;;8.80;72.90;102258.78;5094538;28;20153;-88
2023/03/30 04:24:21;;;;;;;7.68;5.07;;;;;;;9.06;72.91;102306.97;5088946;28;20063;-88
2023/03/30 04:26:47;;;;;;;10.40;5.65;;;;;;;8.70;72.92;102244.09;5110388;28;20038;-88
2023/03/30 04:29:16;;;;;;;10.88;5.38;;;;;;;9.05;73.06;102303.47;5103610;28;20534;-88
2023/03/30 04:31:45;;;;;;;8.93;5.13;;;;;;;9.00;73.43;102315.19;5090013;28;20056;-89
2023/03/30 04:34:14;;;;;;;7.82;5.13;;;;;;;8.92;73.14;102298.00;5105475;28;20052;-89
2023/03/30 04:36:43;;;;;;;10.48;4.88;;;;;;;8.97;73.02;102304.50;5096948;28;20048;-89
2023/03/30 04:39:10;;;;;;;10.40;5.47;;;;;;;8.77;73.18;102268.97;5103233;28;20037;-88
2023/03/30 04:41:36;;;;;;;7.32;5.07;;;;;;;8.85;72.75;102282.66;5107888;28;20489;-88
2023/03/30 04:44:04;;;;;;;8.10;4.80;;;;;;;8.96;72.84;102302.69;5073639;28;20043;-88
2023/03/30 04:46:31;;;;;;;10.98;5.28;;;;;;;8.65;72.95;102255.78;5079422;28;20020;-89
2023/03/30 04:48:57;;;;;;;9.65;5.63;;;;;;;8.54;73.02;102241.84;5104833;28;20023;-89
2023/03/30 04:51:23;;;;;;;9.05;5.20;;;;;;;8.99;73.29;102320.28;5067641;28;20032;-88
2023/03/30 04:53:48;;;;;;;9.45;5.78;;;;;;;8.86;73.10;102310.50;5090775;28;20028;-87
2023/03/30 04:56:14;;;;;;;9.70;5.30;;;;;;;8.94;73.19;102331.22;5123641;27;20063;-87
2023/03/30 04:58:39;;;;;;;8.95;5.07;;;;;;;8.91;73.07;102332.63;5094418;28;20405;-88
2023/03/30 05:01:05;;;;;;;10.73;5.63;;;;;;;8.81;73.12;102315.31;5102531;28;20032;-88
2023/03/30 05:03:31;;;;;;;9.07;5.13;;;;;;;8.79;72.71;102316.88;5111368;27;20027;-88
2023/03/30 05:05:56;;;;;;;9.82;5.53;;;;;;;8.62;73.24;102278.06;5096265;28;20032;-88
2023/03/30 05:08:22;;;;;;;9.80;5.28;;;;;;;8.85;73.08;102332.13;5096572;28;20172;-87
2023/03/30 05:10:48;;;;;;;8.05;4.90;;;;;;;8.83;73.33;102326.78;5103030;27;20040;-89
2023/03/30 05:13:14;;;;;;;9.60;5.32;;;;;;;8.73;73.30;102324.16;5103567;28;20027;-89
2023/03/30 05:15:41;;;;;;;10.00;5.68;;;;;;;8.82;72.98;102335.38;5110650;27;20038;-89
2023/03/30 05:18:07;;;;;;;9.50;5.53;;;;;;;8.75;73.28;102333.03;5086232;28;20496;-90
2023/03/30 05:20:33;;;;;;;8.02;5.07;;;;;;;8.62;73.43;102305.00;5091540;28;20492;-88
2023/03/30 05:22:59;;;;;;;8.38;5.25;;;;;;;8.74;73.46;102328.56;5098858;27;20035;-88
2023/03/30 05:25:26;;;;;;;10.32;5.40;;;;;;;8.47;73.39;102285.47;5107166;28;20416;-89
2023/03/30 05:27:52;;;;;;;8.93;5.80;;;;;;;8.63;73.64;102316.34;5092728;27;20035;-90
2023/03/30 05:30:18;;;;;;;6.95;4.78;;;;;;;8.69;73.87;102330.78;5104037;28;20123;-88
2023/03/30 05:32:45;;;;;;;8.73;5.30;;;;;;;8.61;73.55;102308.38;5087902;28;20549;-89
2023/03/30 05:35:11;;;;;;;8.38;4.88;;;;;;;8.35;73.44;102278.34;5102459;28;20035;-88
2023/03/30 05:37:40;;;;;;;9.63;5.22;;;;;;;8.70;73.82;102343.06;5093980;28;20054;-88
2023/03/30 05:40:08;;;;;;;8.32;5.20;;;;;;;8.68;74.15;102341.09;5100741;28;20516;-89
2023/03/30 05:42:36;;;;;;;7.60;5.03;;;;;;;8.57;73.72;102327.13;5101109;28;20507;-90
2023/03/30 05:45:04;;;;;;;9.65;4.97;;;;;;;8.55;73.79;102323.47;5087502;28;20020;-90
2023/03/30 05:47:29;;;;;;;9.15;4.85;;;;;;;8.33;73.78;102287.72;5085549;28;20028;-89
2023/03/30 05:49:59;;;;;;;9.48;5.25;;;;;;;8.46;73.62;102317.47;5100830;28;20028;-89
2023/03/30 05:52:25;;;;;;;7.88;4.85;;;;;;;8.54;73.72;102324.25;5092124;28;20074;-87
2023/03/30 05:54:50;;;;;;;6.82;4.70;;;;;;;8.39;73.67;102297.78;5105545;28;20070;-88
2023/03/30 05:57:16;;;;;;;7.55;5.03;;;;;;;8.36;73.91;102298.41;5102778;27;20054;-87
2023/03/30 05:59:42;;;;;;;7.60;4.85;;;;;;;8.33;73.98;102295.53;5107925;27;20036;-88
2023/03/30 06:02:11;;;;;;;8.90;4.82;;;;;;;8.52;74.12;102326.72;5100775;28;20038;-88
2023/03/30 06:04:41;;;;;;;7.88;5.15;;;;;;;8.49;73.60;102331.69;5101326;27;20030;-88
2023/03/30 06:10:54;;;;;;;7.25;4.45;;;;;;;8.61;73.81;102347.44;5074313;28;20513;-86
2023/03/30 06:13:59;;;;;;;8.32;5.00;;;;;;;8.64;73.68;102346.81;5109291;27;20035;-84
2023/03/30 06:17:24;;;;;;;7.88;4.85;;;;;;;8.66;73.87;102348.78;5097776;28;20426;-88
2023/03/30 06:19:50;;;;;;;7.50;5.18;;;;;;;8.46;74.10;102328.78;5105039;28;20031;-88
2023/03/30 06:22:16;;;;;;;7.65;4.90;;;;;;;8.46;74.04;102331.41;5087524;28;20080;-89
2023/03/30 06:24:44;;;;;;;8.18;5.13;;;;;;;8.60;74.06;102362.97;5082786;28;20035;-88
2023/03/30 06:31:34;;;;;;;7.65;4.90;;;;;;;8.60;73.98;102357.75;5031553;28;20056;-86
2023/03/30 06:34:20;;;;;;;7.55;4.85;;;;;;;8.25;74.25;102308.66;4995949;28;20042;-87
2023/03/30 06:36:46;;;;;;;8.13;4.75;;;;;;;8.49;73.89;102334.28;5018413;28;20048;-90
2023/03/30 06:39:13;;;;;;;8.73;4.70;;;;;;;8.35;74.27;102321.72;5075951;28;20196;-89
2023/03/30 06:41:42;;;;;;;9.00;4.72;;;;;;;8.49;74.34;102351.59;5094700;28;20042;-91
2023/03/30 06:44:09;;;;;;;7.70;5.07;;;;;;;8.56;74.03;102357.47;5105949;28;20024;-88
2023/03/30 06:46:35;;;;;;;7.45;4.53;;;;;;;8.55;74.35;102367.72;5097443;28;20031;-90
2023/03/30 06:49:03;;;;;;;6.82;4.50;;;;;;;8.31;74.36;102317.91;5081320;28;20024;-91
2023/03/30 06:51:29;;;;;;;7.85;5.03;;;;;;;8.59;74.11;102372.44;5101191;28;20576;-89
2023/03/30 06:53:56;;;;;;;7.60;4.70;;;;;;;8.52;74.32;102365.78;5085651;28;20085;-90
2023/03/30 06:56:22;;;;;;;11.18;4.90;;;;;;;8.41;74.14;102344.81;5103757;28;20058;-89
2023/03/30 06:58:48;;;;;;;5.43;4.30;;;;;;;8.29;74.10;102318.56;5098559;28;20557;-90
2023/03/30 07:01:18;;;;;;;7.90;4.88;;;;;;;8.48;74.16;102348.06;5117909;27;20019;-92
2023/03/30 07:03:44;;;;;;;5.97;4.20;;;;;;;8.55;74.01;102376.47;5112093;28;20066;-88
2023/03/30 07:06:16;;;;;;;7.68;4.88;;;;;;;8.54;74.50;102373.72;5108863;28;20059;-92
2023/03/30 07:08:44;;;;;;;7.53;4.65;;;;;;;8.41;74.56;102352.63;5088593;28;20451;-90
2023/03/30 07:11:10;;;;;;;6.80;4.70;;;;;;;8.35;74.43;102335.63;5089111;28;20020;-89
2023/03/30 07:13:38;;;;;;;7.38;4.70;;;;;;;8.53;74.36;102367.63;5106712;28;20028;-88
2023/03/30 07:16:04;;;;;;;7.85;4.50;;;;;;;8.55;73.65;102362.53;5099648;27;20042;-87
2023/03/30 07:18:31;;;;;;;6.72;4.40;;;;;;;8.61;73.90;102373.47;5103247;28;20027;-90
2023/03/30 07:20:58;;;;;;;8.10;4.95;;;;;;;8.59;73.63;102371.53;5090942;28;20503;-89
2023/03/30 07:23:23;;;;;;;9.32;4.60;;;;;;;8.47;74.20;102361.88;5106648;28;20028;-87
2023/03/30 07:25:50;;;;;;;7.63;4.57;;;;;;;8.52;74.46;102372.69;5101973;28;20406;-88
2023/03/30 07:28:17;;;;;;;;;;;;;;;8.51;74.38;102377.00;5101597;28;20024;-89
2023/03/30 07:30:43;;;;;;;6.47;4.35;;;;;;;8.25;74.50;102319.97;5108787;27;19916;-89
2023/03/30 07:33:10;;;;;;;7.10;4.60;;;;;;;8.27;74.39;102325.31;5107252;28;20540;-89
2023/03/30 07:35:42;;;;;;;7.35;4.40;;;;;;;8.52;74.23;102375.28;5110707;28;20023;-88
2023/03/30 07:38:07;;;;;;;6.22;4.38;;;;;;;8.47;74.11;102354.06;5090591;28;20097;-90
2023/03/30 07:40:34;;;;;;;5.22;3.83;;;;;;;8.51;74.19;102353.56;5117782;27;20031;-89
2023/03/30 07:43:00;;;;;;;5.68;3.92;;;;;;;8.36;74.08;102341.78;5097238;28;20064;-87
2023/03/30 07:45:26;;;;;;;6.90;4.25;;;;;;;8.45;74.41;102366.03;5111360;27;20055;-88
2023/03/30 07:47:51;;;;;;;6.88;4.30;;;;;;;8.37;74.09;102343.59;5113871;28;20066;-88
2023/03/30 07:50:17;;;;;;;6.43;4.50;;;;;;;8.38;73.88;102339.28;5085634;28;20077;-87
2023/03/30 07:52:42;;;;;;;8.60;4.53;;;;;;;8.61;73.65;102367.38;5095962;28;20282;-88
2023/03/30 07:55:09;;;;;;;11.98;4.30;;;;;;;8.52;73.98;102362.28;5114418;28;20385;-89
2023/03/30 07:57:35;;;;;;;4.63;3.70;;;;;;;8.35;74.32;102330.41;5096204;28;20561;-88
2023/03/30 08:00:04;;;;;;;6.35;3.90;;;;;;;8.58;74.31;102367.13;5082281;28;20472;-87
2023/03/30 08:02:29;;;;;;;6.45;4.20;;;;;;;8.46;74.73;102346.09;5096132;28;20066;-88
2023/03/30 08:04:56;;;;;;;8.05;4.03;;;;;;;8.44;74.92;102337.25;5078289;28;20063;-88
2023/03/30 08:07:22;;;;;;;5.65;3.90;;;;;;;8.44;74.98;102345.97;5111264;28;20402;-88
2023/03/30 08:09:50;;;;;;;5.65;3.50;;;;;;;8.46;74.81;102351.31;5078868;28;20030;-88
2023/03/30 08:12:16;;;;;;;6.07;4.00;;;;;;;8.20;75.01;102307.34;5078868;28;20035;-88
2023/03/30 08:14:41;;;;;;;6.30;3.75;;;;;;;8.21;75.08;102299.66;5112764;28;20076;-87
2023/03/30 08:17:08;;;;;;;7.35;4.00;;;;;;;8.40;75.11;102333.41;5095239;28;20032;-89
2023/03/30 08:19:33;;;;;;;5.68;3.65;;;;;;;8.32;75.14;102327.56;5095490;28;20042;-88
2023/03/30 08:22:00;;;;;;;5.25;3.67;;;;;;;8.53;75.17;102364.13;5114404;28;20027;-89
2023/03/30 08:24:26;;;;;;;8.98;3.60;;;;;;;8.35;75.13;102330.41;5113950;28;20027;-88
2023/03/30 08:26:54;;;;;;;7.05;4.10;;;;;;;8.48;75.21;102347.16;5083563;28;20035;-88
2023/03/30 08:29:21;;;;;;;6.70;3.42;;;;;;;8.39;75.72;102326.41;5107579;28;20546;-90
2023/03/30 08:31:47;;;;;;;4.75;3.50;;;;;;;8.54;75.59;102338.19;5067548;28;20035;-88
2023/03/30 08:34:13;;;;;;;10.82;3.97;;;;;;;8.53;75.22;102335.47;5094166;28;20558;-88
2023/03/30 08:36:38;;;;;;;6.85;3.47;;;;;;;8.34;74.96;102305.19;5082657;28;20578;-88
2023/03/30 08:39:04;;;;;;;6.47;3.47;;;;;;;8.49;75.15;102321.25;5089240;28;20028;-88
2023/03/30 08:41:45;;;;;;;6.00;3.53;;;;;;;8.73;75.37;102339.78;5089266;28;20031;-85
2023/03/30 08:44:32;;;;;;;6.82;3.38;;;;;;;8.72;75.09;102338.88;5108537;28;20035;-87
2023/03/30 08:47:00;;;;;;;6.10;3.60;;;;;;;8.74;75.72;102339.94;5091997;28;20067;-89
2023/03/30 08:49:29;;;;;;;5.80;3.42;;;;;;;8.71;75.50;102328.31;5095380;28;20023;-88
2023/03/30 08:51:54;;;;;;;5.47;3.22;;;;;;;8.62;75.55;102317.13;5093328;28;20409;-85
2023/03/30 08:54:21;;;;;;;5.97;3.15;;;;;;;8.55;75.21;102305.25;5092531;28;20026;-87
2023/03/30 08:57:02;;;;;;;6.32;3.20;;;;;;;8.75;75.05;102335.63;5094428;28;20084;-87
2023/03/30 09:00:05;;;;;;;5.50;3.63;;;;;;;8.73;74.68;102319.88;5094661;28;20027;-87
2023/03/30 09:02:33;;;;;;;5.53;3.22;;;;;;;8.76;75.48;102333.16;5084660;28;20133;-88
2023/03/30 09:05:17;;;;;;;4.78;3.40;;;;;;;8.77;75.00;102327.16;5062644;28;20124;-87
2023/03/30 09:07:56;;;;;;;5.03;3.30;;;;;;;8.78;75.32;102315.03;5083152;28;20028;-87
2023/03/30 09:10:24;;;;;;;7.10;3.47;;;;;;;8.82;75.22;102311.03;5112197;28;20174;-88
2023/03/30 09:13:01;;;;;;;4.75;3.42;;;;;;;8.47;75.46;102247.31;5098010;28;20030;-88
2023/03/30 09:15:30;;;;;;;5.82;3.60;;;;;;;8.88;75.01;102319.38;5085698;28;20110;-88
2023/03/30 09:18:00;;;;;;;6.50;3.70;;;;;;;8.79;75.38;102287.31;5094756;28;20020;-87
2023/03/30 09:20:30;;;;;;;8.18;3.58;;;;;;;8.93;75.61;102311.16;5095171;28;20030;-89
2023/03/30 09:23:01;;;;;;;7.70;3.90;;;;;;;8.41;75.70;102204.22;5091080;28;20023;-89
2023/03/30 09:25:52;;;;;;;7.75;3.67;;;;;;;8.93;75.11;102305.97;5068421;28;20023;-86
2023/03/30 09:28:19;;;;;;;5.47;3.42;;;;;;;8.89;75.70;102289.91;5100646;28;20016;-87
2023/03/30 09:30:51;;;;;;;6.63;3.60;;;;;;;8.78;74.99;102281.19;5080112;28;20024;-86
2023/03/30 09:33:38;;;;;;;5.00;3.28;;;;;;;8.99;75.16;102297.72;5084559;28;20514;-87
2023/03/30 09:36:14;;;;;;;;;;;;;;;9.05;75.21;102289.53;5092193;28;20027;-87
2023/03/30 09:38:41;;;;;;;7.40;3.70;;;;;;;8.88;75.30;102256.84;5055596;28;20383;-87
2023/03/30 09:41:31;;;;;;;5.20;3.70;;;;;;;9.06;75.50;102287.06;5071940;28;20529;-86
2023/03/30 09:43:58;;;;;;;5.32;3.55;;;;;;;9.08;75.20;102272.47;5071481;28;20025;-87
2023/03/30 09:46:24;;;;;;;6.32;4.00;;;;;;;8.91;75.32;102242.38;5055084;28;20032;-87
2023/03/30 09:48:50;;;;;;;5.13;3.67;;;;;;;9.22;74.76;102267.50;5062653;28;20027;-87
2023/03/30 09:51:19;;;;;;;5.35;3.50;;;;;;;9.25;75.19;102272.94;5087061;28;20110;-87
2023/03/30 09:53:47;;;;;;;4.25;3.38;;;;;;;9.13;75.53;102257.22;5055216;28;20103;-87
2023/03/30 09:56:20;;;;;;;6.60;3.30;;;;;;;9.06;76.11;102253.19;5069037;28;20473;-88
2023/03/30 09:58:46;;;;;;;5.18;3.33;;;;;;;8.83;76.18;102211.25;5046064;28;20066;-87
2023/03/30 10:01:15;;;;;;;4.20;3.20;;;;;;;9.22;76.20;102272.72;5059610;28;20063;-87
2023/03/30 10:03:42;;;;;;;3.83;2.88;;;;;;;9.00;76.02;102212.69;5076535;28;20024;-88
2023/03/30 10:06:20;;;;;;;5.30;3.33;;;;;;;9.24;76.80;102263.31;5056483;28;20040;-88
2023/03/30 10:08:57;;;;;;;6.80;3.38;;;;;;;8.84;76.45;102169.69;5054373;28;20032;-88
2023/03/30 10:11:50;;;;;;;4.35;2.90;;;;;;;9.08;77.01;102222.03;5047111;28;20035;-88
2023/03/30 10:14:15;;;;;;;4.82;2.90;;;;;;;9.42;77.02;102250.88;5055979;28;20123;-88
2023/03/30 10:16:43;;;;;;;9.20;3.25;;;;;;;9.21;77.65;102229.16;5062555;28;20115;-87
2023/03/30 10:19:16;;;;;;;5.72;3.50;;;;;;;9.33;76.86;102245.81;5054023;28;20068;-86
2023/03/30 10:21:47;;;;;;;7.10;3.38;;;;;;;9.15;77.84;102208.72;5067990;28;20028;-88
2023/03/30 10:24:13;;;;;;;5.18;3.00;;;;;;;9.37;79.08;102243.59;5075862;28;20052;-88
2023/03/30 10:26:43;;;;;;;6.18;2.70;;;;;;;9.35;78.31;102224.31;5084016;28;20486;-88
2023/03/30 10:29:13;;;;;;;6.55;3.17;;;;;;;9.46;78.86;102239.91;5052619;28;20512;-88
2023/03/30 10:31:43;;;;;;;4.72;3.10;;;;;;;9.48;79.02;102233.13;5083400;28;20115;-87
2023/03/30 10:34:27;;;;;;;6.70;3.50;;;;;;;9.29;79.84;102207.25;5060742;28;20405;-88
2023/03/30 10:36:53;;;;;;;11.68;3.78;;;;;;;9.29;81.96;102207.25;5069424;28;20052;-88
2023/03/30 10:39:27;;;;;;;14.88;4.50;;;;;;;9.44;80.89;102232.00;5065072;28;20034;-88
2023/03/30 10:41:53;;;;;;;15.20;4.75;;;;;;;9.33;80.51;102192.00;5089091;28;20036;-88
2023/03/30 10:44:36;;;;;;;13.60;4.82;;;;;;;9.47;81.80;102228.72;5089006;28;20031;-88
2023/03/30 10:47:28;;;;;;;16.33;4.95;;;;;;;9.31;82.39;102192.63;5076391;28;20116;-87
2023/03/30 10:50:34;;;;;;;25.90;5.30;;;;;;;9.47;81.91;102211.38;5082005;28;20146;-87
2023/03/30 10:53:37;;;;;;;19.73;5.13;;;;;;;9.53;83.07;102224.91;5045243;28;20092;-86
2023/03/30 10:56:15;;;;;;;22.80;6.75;;;;;;;9.54;82.49;102216.28;5099966;28;20511;-87
2023/03/30 10:58:53;;;;;;;19.98;5.40;;;;;;;9.56;83.18;102212.09;5106722;28;20028;-88
2023/03/30 11:01:48;;;;;;;22.90;5.22;;;;;;;9.58;81.37;102220.06;5092362;28;20067;-88
2023/03/30 11:04:52;;;;;;;13.27;5.80;;;;;;;9.57;83.75;102205.22;5083897;28;20421;-86
2023/03/30 11:07:34;;;;;;;15.77;5.22;;;;;;;9.58;84.04;102207.94;5073063;28;20099;-88
2023/03/30 11:10:35;;;;;;;12.05;4.95;;;;;;;9.60;83.79;102191.50;5099082;28;20059;-89
2023/03/30 11:13:04;;;;;;;13.48;5.75;;;;;;;9.51;83.50;102174.31;5089216;28;20094;-87
2023/03/30 11:15:44;;;;;;;11.95;5.10;;;;;;;9.61;83.71;102188.09;5086687;28;20118;-87
2023/03/30 11:18:20;;;;;;;16.58;5.60;;;;;;;9.64;83.05;102199.69;5089677;28;20031;-87
2023/03/30 11:21:05;;;;;;;12.52;5.28;;;;;;;9.65;84.72;102178.06;5103228;28;20496;-87
2023/03/30 11:23:52;;;;;;;12.60;5.28;;;;;;;9.65;83.22;102182.34;5092844;28;20031;-85
2023/03/30 11:26:43;;;;;;;14.55;5.18;;;;;;;9.53;82.88;102148.38;5094783;28;20394;-86
2023/03/30 11:29:28;;;;;;;12.57;5.22;;;;;;;9.70;81.85;102171.50;5051753;28;20054;-86
2023/03/30 11:32:24;;;;;;;11.05;4.80;;;;;;;9.59;81.15;102151.47;5089596;28;20085;-86
2023/03/30 11:35:09;;;;;;;10.45;4.60;;;;;;;9.77;81.22;102170.28;5074735;28;20035;-86
2023/03/30 11:37:41;;;;;;;11.82;4.60;;;;;;;9.75;81.89;102162.34;5082006;28;20069;-86
2023/03/30 11:40:17;;;;;;;9.38;4.38;;;;;;;9.74;82.01;102162.22;5092495;28;20027;-85
2023/03/30 11:42:43;;;;;;;9.32;4.30;;;;;;;9.72;81.84;102149.06;5086661;28;20028;-86
2023/03/30 11:45:32;;;;;;;10.60;4.40;;;;;;;9.81;81.89;102159.31;5066206;28;20104;-87
2023/03/30 11:48:37;;;;;;;9.57;4.20;;;;;;;9.87;81.95;102151.97;5067166;28;20500;-87
2023/03/30 11:51:11;;;;;;;6.75;4.45;;;;;;;9.92;81.47;102148.00;5102185;28;20069;-88
2023/03/30 11:54:24;;;;;;;8.88;4.70;;;;;;;9.93;81.33;102148.94;5087793;28;20036;-88
2023/03/30 11:57:24;;;;;;;7.47;4.10;;;;;;;9.94;81.00;102145.53;5029815;28;20055;-88
2023/03/30 12:00:08;;;;;;;7.65;4.20;;;;;;;9.65;81.30;102098.88;5075708;28;20027;-89
2023/03/30 12:03:01;;;;;;;10.40;4.10;;;;;;;10.01;80.46;102159.97;5087448;28;20031;-89
2023/03/30 12:05:47;;;;;;;7.07;3.88;;;;;;;10.03;80.42;102151.47;5120014;28;20066;-89